sensor_id;sensor_type;location;lat;lon;timestamp;P1;durP1;ratioP1;P2;durP2;ratioP2
49193;SDS011;35029;50.804;12.866;2023-02-23T00:01:12;17.15;;;13.77;;
49193;SDS011;35029;50.804;12.866;2023-02-23T00:03:41;16.98;;;13.52;;
49193;SDS011;35029;50.804;12.866;2023-02-23T00:06:07;18.98;;;13.95;;
49193;SDS011;35029;50.804;12.866;2023-02-23T00:08:34;19.85;;;15.10;;
49193;SDS011;35029;50.804;12.866;2023-02-23T00:11:05;16.42;;;13.13;;
49193;SDS011;35029;50.804;12.866;2023-02-23T00:13:32;17.30;;;12.73;;
49193;SDS011;35029;50.804;12.866;2023-02-23T00:16:06;19.58;;;14.32;;
49193;SDS011;35029;50.804;12.866;2023-02-23T00:18:33;16.27;;;13.25;;
49193;SDS011;35029;50.804;12.866;2023-02-23T00:21:12;18.88;;;14.38;;
49193;SDS011;35029;50.804;12.866;2023-02-23T00:23:40;17.05;;;13.10;;
49193;SDS011;35029;50.804;12.866;2023-02-23T00:26:07;18.27;;;12.73;;
49193;SDS011;35029;50.804;12.866;2023-02-23T00:28:32;18.90;;;13.48;;
49193;SDS011;35029;50.804;12.866;2023-02-23T00:31:02;20.63;;;14.82;;
49193;SDS011;35029;50.804;12.866;2023-02-23T00:33:28;17.08;;;13.77;;
49193;SDS011;35029;50.804;12.866;2023-02-23T00:35:54;19.00;;;14.13;;
49193;SDS011;35029;50.804;12.866;2023-02-23T00:38:20;19.05;;;14.30;;
49193;SDS011;35029;50.804;12.866;2023-02-23T00:40:46;16.20;;;12.38;;
49193;SDS011;35029;50.804;12.866;2023-02-23T00:43:11;18.42;;;13.98;;
49193;SDS011;35029;50.804;12.866;2023-02-23T00:45:37;17.67;;;13.75;;
49193;SDS011;35029;50.804;12.866;2023-02-23T00:48:02;17.35;;;13.70;;
49193;SDS011;35029;50.804;12.866;2023-02-23T00:50:34;18.30;;;14.35;;
49193;SDS011;35029;50.804;12.866;2023-02-23T00:53:03;18.85;;;14.27;;
49193;SDS011;35029;50.804;12.866;2023-02-23T00:55:29;19.65;;;15.68;;
49193;SDS011;35029;50.804;12.866;2023-02-23T00:57:54;17.67;;;12.18;;
49193;SDS011;35029;50.804;12.866;2023-02-23T01:00:22;15.90;;;12.52;;
49193;SDS011;35029;50.804;12.866;2023-02-23T01:02:49;19.65;;;15.02;;
49193;SDS011;35029;50.804;12.866;2023-02-23T01:05:15;16.55;;;13.45;;
49193;SDS011;35029;50.804;12.866;2023-02-23T01:07:41;14.85;;;12.35;;
49193;SDS011;35029;50.804;12.866;2023-02-23T01:10:10;15.15;;;13.43;;
49193;SDS011;35029;50.804;12.866;2023-02-23T01:12:50;19.45;;;13.25;;
49193;SDS011;35029;50.804;12.866;2023-02-23T01:15:16;17.10;;;12.77;;
49193;SDS011;35029;50.804;12.866;2023-02-23T01:17:43;17.08;;;14.10;;
49193;SDS011;35029;50.804;12.866;2023-02-23T01:20:10;14.50;;;12.23;;
49193;SDS011;35029;50.804;12.866;2023-02-23T01:22:48;15.95;;;12.20;;
49193;SDS011;35029;50.804;12.866;2023-02-23T01:25:15;15.30;;;12.90;;
49193;SDS011;35029;50.804;12.866;2023-02-23T01:27:42;15.45;;;12.98;;
49193;SDS011;35029;50.804;12.866;2023-02-23T01:30:08;16.50;;;13.38;;
49193;SDS011;35029;50.804;12.866;2023-02-23T01:32:36;18.58;;;14.60;;
49193;SDS011;35029;50.804;12.866;2023-02-23T01:35:04;15.18;;;12.27;;
49193;SDS011;35029;50.804;12.866;2023-02-23T01:37:33;15.77;;;12.50;;
49193;SDS011;35029;50.804;12.866;2023-02-23T01:40:00;15.77;;;11.40;;
49193;SDS011;35029;50.804;12.866;2023-02-23T01:42:30;14.83;;;11.50;;
49193;SDS011;35029;50.804;12.866;2023-02-23T01:48:01;15.93;;;13.23;;
49193;SDS011;35029;50.804;12.866;2023-02-23T01:51:01;14.93;;;12.52;;
49193;SDS011;35029;50.804;12.866;2023-02-23T01:53:32;15.90;;;12.52;;
49193;SDS011;35029;50.804;12.866;2023-02-23T01:56:04;17.17;;;13.55;;
49193;SDS011;35029;50.804;12.866;2023-02-23T01:58:37;17.13;;;12.40;;
49193;SDS011;35029;50.804;12.866;2023-02-23T02:01:05;12.85;;;11.43;;
49193;SDS011;35029;50.804;12.866;2023-02-23T02:06:06;18.42;;;13.15;;
49193;SDS011;35029;50.804;12.866;2023-02-23T02:08:34;14.23;;;11.70;;
49193;SDS011;35029;50.804;12.866;2023-02-23T02:11:09;14.82;;;11.82;;
49193;SDS011;35029;50.804;12.866;2023-02-23T02:13:58;13.40;;;11.55;;
49193;SDS011;35029;50.804;12.866;2023-02-23T02:30:14;13.32;;;11.90;;
49193;SDS011;35029;50.804;12.866;2023-02-23T02:39:11;13.73;;;11.73;;
49193;SDS011;35029;50.804;12.866;2023-02-23T02:44:56;14.57;;;11.30;;
49193;SDS011;35029;50.804;12.866;2023-02-23T02:47:30;13.25;;;11.10;;
49193;SDS011;35029;50.804;12.866;2023-02-23T02:50:07;15.05;;;11.43;;
49193;SDS011;35029;50.804;12.866;2023-02-23T02:52:41;13.70;;;10.85;;
49193;SDS011;35029;50.804;12.866;2023-02-23T02:55:26;16.38;;;12.05;;
49193;SDS011;35029;50.804;12.866;2023-02-23T02:58:01;13.35;;;11.23;;
49193;SDS011;35029;50.804;12.866;2023-02-23T03:00:41;17.40;;;11.95;;
49193;SDS011;35029;50.804;12.866;2023-02-23T03:06:28;13.85;;;11.18;;
49193;SDS011;35029;50.804;12.866;2023-02-23T03:09:24;12.88;;;10.85;;
49193;SDS011;35029;50.804;12.866;2023-02-23T03:18:05;13.65;;;10.68;;
49193;SDS011;35029;50.804;12.866;2023-02-23T03:20:54;13.48;;;10.30;;
49193;SDS011;35029;50.804;12.866;2023-02-23T03:23:57;12.27;;;10.95;;
49193;SDS011;35029;50.804;12.866;2023-02-23T03:27:08;11.95;;;10.40;;
49193;SDS011;35029;50.804;12.866;2023-02-23T03:33:14;14.40;;;10.13;;
49193;SDS011;35029;50.804;12.866;2023-02-23T03:38:59;13.82;;;10.68;;
49193;SDS011;35029;50.804;12.866;2023-02-23T03:41:51;12.48;;;9.57;;
49193;SDS011;35029;50.804;12.866;2023-02-23T03:44:39;13.60;;;11.07;;
49193;SDS011;35029;50.804;12.866;2023-02-23T03:47:26;13.88;;;10.32;;
49193;SDS011;35029;50.804;12.866;2023-02-23T03:50:19;13.35;;;10.77;;
49193;SDS011;35029;50.804;12.866;2023-02-23T03:53:14;12.15;;;9.70;;
49193;SDS011;35029;50.804;12.866;2023-02-23T03:56:04;12.85;;;9.60;;
49193;SDS011;35029;50.804;12.866;2023-02-23T03:58:54;12.43;;;9.10;;
49193;SDS011;35029;50.804;12.866;2023-02-23T04:01:42;12.65;;;10.23;;
49193;SDS011;35029;50.804;12.866;2023-02-23T04:04:27;12.70;;;9.07;;
49193;SDS011;35029;50.804;12.866;2023-02-23T04:07:14;12.45;;;9.68;;
49193;SDS011;35029;50.804;12.866;2023-02-23T04:10:01;14.88;;;10.43;;
49193;SDS011;35029;50.804;12.866;2023-02-23T04:15:48;10.93;;;9.38;;
49193;SDS011;35029;50.804;12.866;2023-02-23T04:18:27;13.00;;;9.60;;
49193;SDS011;35029;50.804;12.866;2023-02-23T04:21:04;13.60;;;10.73;;
49193;SDS011;35029;50.804;12.866;2023-02-23T04:23:30;12.43;;;9.52;;
49193;SDS011;35029;50.804;12.866;2023-02-23T04:25:56;14.15;;;10.90;;
49193;SDS011;35029;50.804;12.866;2023-02-23T04:28:23;11.65;;;9.35;;
49193;SDS011;35029;50.804;12.866;2023-02-23T04:30:50;13.88;;;10.77;;
49193;SDS011;35029;50.804;12.866;2023-02-23T04:33:19;12.48;;;11.10;;
49193;SDS011;35029;50.804;12.866;2023-02-23T04:35:46;14.35;;;11.40;;
49193;SDS011;35029;50.804;12.866;2023-02-23T04:38:12;13.18;;;10.90;;
49193;SDS011;35029;50.804;12.866;2023-02-23T04:40:37;14.40;;;11.25;;
49193;SDS011;35029;50.804;12.866;2023-02-23T04:43:03;15.93;;;11.38;;
49193;SDS011;35029;50.804;12.866;2023-02-23T04:45:28;21.10;;;15.70;;
49193;SDS011;35029;50.804;12.866;2023-02-23T04:47:54;16.58;;;12.68;;
49193;SDS011;35029;50.804;12.866;2023-02-23T04:50:20;18.38;;;11.88;;
49193;SDS011;35029;50.804;12.866;2023-02-23T04:52:46;34.08;;;20.35;;
49193;SDS011;35029;50.804;12.866;2023-02-23T04:55:17;33.00;;;20.50;;
49193;SDS011;35029;50.804;12.866;2023-02-23T04:57:45;20.00;;;15.32;;
49193;SDS011;35029;50.804;12.866;2023-02-23T05:00:11;18.88;;;13.68;;
49193;SDS011;35029;50.804;12.866;2023-02-23T05:02:37;15.75;;;12.90;;
49193;SDS011;35029;50.804;12.866;2023-02-23T05:05:03;14.75;;;11.65;;
49193;SDS011;35029;50.804;12.866;2023-02-23T05:07:31;15.38;;;12.07;;
49193;SDS011;35029;50.804;12.866;2023-02-23T05:09:56;13.23;;;10.65;;
49193;SDS011;35029;50.804;12.866;2023-02-23T05:12:22;14.85;;;11.80;;
49193;SDS011;35029;50.804;12.866;2023-02-23T05:14:47;14.20;;;11.55;;
49193;SDS011;35029;50.804;12.866;2023-02-23T05:17:13;14.50;;;11.15;;
49193;SDS011;35029;50.804;12.866;2023-02-23T05:19:38;12.93;;;10.38;;
49193;SDS011;35029;50.804;12.866;2023-02-23T05:22:04;16.08;;;11.00;;
49193;SDS011;35029;50.804;12.866;2023-02-23T05:24:30;14.57;;;11.48;;
49193;SDS011;35029;50.804;12.866;2023-02-23T05:26:58;13.85;;;10.05;;
49193;SDS011;35029;50.804;12.866;2023-02-23T05:29:24;11.77;;;10.38;;
49193;SDS011;35029;50.804;12.866;2023-02-23T05:31:49;13.93;;;10.68;;
49193;SDS011;35029;50.804;12.866;2023-02-23T05:34:15;13.82;;;11.35;;
49193;SDS011;35029;50.804;12.866;2023-02-23T05:36:41;14.60;;;10.65;;
49193;SDS011;35029;50.804;12.866;2023-02-23T05:39:07;14.55;;;11.52;;
49193;SDS011;35029;50.804;12.866;2023-02-23T05:41:33;14.23;;;11.40;;
49193;SDS011;35029;50.804;12.866;2023-02-23T05:43:59;12.77;;;10.35;;
49193;SDS011;35029;50.804;12.866;2023-02-23T05:46:25;16.33;;;12.00;;
49193;SDS011;35029;50.804;12.866;2023-02-23T05:48:58;14.20;;;11.30;;
49193;SDS011;35029;50.804;12.866;2023-02-23T05:51:26;15.77;;;12.65;;
49193;SDS011;35029;50.804;12.866;2023-02-23T05:53:52;16.90;;;12.48;;
49193;SDS011;35029;50.804;12.866;2023-02-23T05:56:18;20.85;;;14.93;;
49193;SDS011;35029;50.804;12.866;2023-02-23T05:58:49;18.42;;;13.00;;
49193;SDS011;35029;50.804;12.866;2023-02-23T06:01:17;16.67;;;13.25;;
49193;SDS011;35029;50.804;12.866;2023-02-23T06:03:44;17.85;;;14.52;;
49193;SDS011;35029;50.804;12.866;2023-02-23T06:06:10;16.25;;;12.63;;
49193;SDS011;35029;50.804;12.866;2023-02-23T06:08:36;15.25;;;12.68;;
49193;SDS011;35029;50.804;12.866;2023-02-23T06:11:02;13.73;;;10.90;;
49193;SDS011;35029;50.804;12.866;2023-02-23T06:13:28;13.88;;;11.90;;
49193;SDS011;35029;50.804;12.866;2023-02-23T06:15:54;14.38;;;11.82;;
49193;SDS011;35029;50.804;12.866;2023-02-23T06:18:19;14.57;;;11.82;;
49193;SDS011;35029;50.804;12.866;2023-02-23T06:20:46;15.60;;;12.98;;
49193;SDS011;35029;50.804;12.866;2023-02-23T06:23:12;17.17;;;13.48;;
49193;SDS011;35029;50.804;12.866;2023-02-23T06:25:40;12.80;;;11.25;;
49193;SDS011;35029;50.804;12.866;2023-02-23T06:28:07;17.40;;;11.93;;
49193;SDS011;35029;50.804;12.866;2023-02-23T06:30:33;16.15;;;12.25;;
49193;SDS011;35029;50.804;12.866;2023-02-23T06:32:59;14.40;;;11.88;;
49193;SDS011;35029;50.804;12.866;2023-02-23T06:35:25;17.23;;;12.18;;
49193;SDS011;35029;50.804;12.866;2023-02-23T06:37:52;15.35;;;12.10;;
49193;SDS011;35029;50.804;12.866;2023-02-23T06:40:18;23.90;;;13.52;;
49193;SDS011;35029;50.804;12.866;2023-02-23T06:42:46;16.13;;;12.43;;
49193;SDS011;35029;50.804;12.866;2023-02-23T06:45:12;13.45;;;11.30;;
49193;SDS011;35029;50.804;12.866;2023-02-23T06:47:38;13.82;;;11.52;;
49193;SDS011;35029;50.804;12.866;2023-02-23T06:50:04;12.45;;;10.98;;
49193;SDS011;35029;50.804;12.866;2023-02-23T06:52:31;13.68;;;11.55;;
49193;SDS011;35029;50.804;12.866;2023-02-23T06:54:57;16.20;;;13.23;;
49193;SDS011;35029;50.804;12.866;2023-02-23T06:57:23;18.30;;;13.90;;
49193;SDS011;35029;50.804;12.866;2023-02-23T06:59:48;15.05;;;12.05;;
49193;SDS011;35029;50.804;12.866;2023-02-23T07:02:14;13.35;;;11.18;;
49193;SDS011;35029;50.804;12.866;2023-02-23T07:04:40;15.55;;;11.93;;
49193;SDS011;35029;50.804;12.866;2023-02-23T07:07:05;14.40;;;11.70;;
49193;SDS011;35029;50.804;12.866;2023-02-23T07:09:32;13.38;;;11.48;;
49193;SDS011;35029;50.804;12.866;2023-02-23T07:11:58;18.48;;;13.88;;
49193;SDS011;35029;50.804;12.866;2023-02-23T07:14:24;17.38;;;14.10;;
49193;SDS011;35029;50.804;12.866;2023-02-23T07:16:49;19.42;;;15.10;;
49193;SDS011;35029;50.804;12.866;2023-02-23T07:19:15;18.52;;;14.55;;
49193;SDS011;35029;50.804;12.866;2023-02-23T07:21:40;23.23;;;16.38;;
49193;SDS011;35029;50.804;12.866;2023-02-23T07:24:06;21.63;;;15.27;;
49193;SDS011;35029;50.804;12.866;2023-02-23T07:26:32;16.92;;;14.98;;
49193;SDS011;35029;50.804;12.866;2023-02-23T07:28:59;20.13;;;15.43;;
49193;SDS011;35029;50.804;12.866;2023-02-23T07:31:25;21.50;;;14.23;;
49193;SDS011;35029;50.804;12.866;2023-02-23T07:33:52;15.48;;;13.88;;
49193;SDS011;35029;50.804;12.866;2023-02-23T07:36:22;13.88;;;12.38;;
49193;SDS011;35029;50.804;12.866;2023-02-23T07:38:48;14.10;;;12.57;;
49193;SDS011;35029;50.804;12.866;2023-02-23T07:41:14;16.45;;;12.88;;
49193;SDS011;35029;50.804;12.866;2023-02-23T07:43:40;15.68;;;12.32;;
49193;SDS011;35029;50.804;12.866;2023-02-23T07:46:06;12.95;;;11.55;;
49193;SDS011;35029;50.804;12.866;2023-02-23T07:48:33;14.82;;;11.82;;
49193;SDS011;35029;50.804;12.866;2023-02-23T07:50:59;13.20;;;11.80;;
49193;SDS011;35029;50.804;12.866;2023-02-23T07:53:24;13.43;;;11.52;;
49193;SDS011;35029;50.804;12.866;2023-02-23T07:55:57;12.23;;;10.27;;
49193;SDS011;35029;50.804;12.866;2023-02-23T07:58:23;11.55;;;10.32;;
49193;SDS011;35029;50.804;12.866;2023-02-23T08:00:49;12.98;;;10.88;;
49193;SDS011;35029;50.804;12.866;2023-02-23T08:03:14;13.68;;;10.65;;
49193;SDS011;35029;50.804;12.866;2023-02-23T08:05:40;14.57;;;10.65;;
49193;SDS011;35029;50.804;12.866;2023-02-23T08:08:09;13.07;;;10.55;;
49193;SDS011;35029;50.804;12.866;2023-02-23T08:10:36;12.32;;;10.68;;
49193;SDS011;35029;50.804;12.866;2023-02-23T08:13:02;14.98;;;11.55;;
49193;SDS011;35029;50.804;12.866;2023-02-23T08:15:28;15.68;;;10.38;;
49193;SDS011;35029;50.804;12.866;2023-02-23T08:17:55;14.40;;;11.45;;
49193;SDS011;35029;50.804;12.866;2023-02-23T08:20:23;14.05;;;11.15;;
49193;SDS011;35029;50.804;12.866;2023-02-23T08:22:52;14.73;;;10.93;;
49193;SDS011;35029;50.804;12.866;2023-02-23T08:25:18;15.80;;;11.23;;
49193;SDS011;35029;50.804;12.866;2023-02-23T08:27:44;14.43;;;10.48;;
49193;SDS011;35029;50.804;12.866;2023-02-23T08:30:10;12.52;;;9.48;;
49193;SDS011;35029;50.804;12.866;2023-02-23T08:32:38;10.70;;;9.30;;
49193;SDS011;35029;50.804;12.866;2023-02-23T08:35:04;13.13;;;8.55;;
49193;SDS011;35029;50.804;12.866;2023-02-23T08:37:32;14.40;;;8.77;;
49193;SDS011;35029;50.804;12.866;2023-02-23T08:39:57;13.45;;;10.38;;
49193;SDS011;35029;50.804;12.866;2023-02-23T08:42:25;14.23;;;9.77;;
49193;SDS011;35029;50.804;12.866;2023-02-23T08:44:51;10.02;;;8.55;;
49193;SDS011;35029;50.804;12.866;2023-02-23T08:47:17;10.38;;;8.65;;
49193;SDS011;35029;50.804;12.866;2023-02-23T08:49:46;14.40;;;10.80;;
49193;SDS011;35029;50.804;12.866;2023-02-23T08:52:12;16.23;;;12.63;;
49193;SDS011;35029;50.804;12.866;2023-02-23T08:54:37;18.60;;;14.65;;
49193;SDS011;35029;50.804;12.866;2023-02-23T08:57:03;20.58;;;15.13;;
49193;SDS011;35029;50.804;12.866;2023-02-23T08:59:28;18.05;;;13.63;;
49193;SDS011;35029;50.804;12.866;2023-02-23T09:01:54;21.75;;;15.18;;
49193;SDS011;35029;50.804;12.866;2023-02-23T09:04:19;24.48;;;13.55;;
49193;SDS011;35029;50.804;12.866;2023-02-23T09:06:45;18.73;;;12.40;;
49193;SDS011;35029;50.804;12.866;2023-02-23T09:09:14;15.40;;;10.75;;
49193;SDS011;35029;50.804;12.866;2023-02-23T09:11:40;13.48;;;10.05;;
49193;SDS011;35029;50.804;12.866;2023-02-23T09:14:06;13.88;;;10.10;;
49193;SDS011;35029;50.804;12.866;2023-02-23T09:16:32;11.30;;;9.32;;
49193;SDS011;35029;50.804;12.866;2023-02-23T09:19:00;10.95;;;8.88;;
49193;SDS011;35029;50.804;12.866;2023-02-23T09:21:27;10.38;;;8.65;;
49193;SDS011;35029;50.804;12.866;2023-02-23T09:23:54;13.38;;;9.13;;
49193;SDS011;35029;50.804;12.866;2023-02-23T09:26:21;13.93;;;9.88;;
49193;SDS011;35029;50.804;12.866;2023-02-23T09:28:48;13.90;;;9.60;;
49193;SDS011;35029;50.804;12.866;2023-02-23T09:31:15;11.32;;;9.25;;
49193;SDS011;35029;50.804;12.866;2023-02-23T09:33:43;12.45;;;10.23;;
49193;SDS011;35029;50.804;12.866;2023-02-23T09:36:12;13.20;;;9.85;;
49193;SDS011;35029;50.804;12.866;2023-02-23T09:38:45;13.80;;;10.18;;
49193;SDS011;35029;50.804;12.866;2023-02-23T09:49:22;12.60;;;9.95;;
49193;SDS011;35029;50.804;12.866;2023-02-23T09:51:53;12.90;;;10.05;;
49193;SDS011;35029;50.804;12.866;2023-02-23T09:54:23;15.43;;;10.43;;
49193;SDS011;35029;50.804;12.866;2023-02-23T09:56:53;13.68;;;10.32;;
49193;SDS011;35029;50.804;12.866;2023-02-23T09:59:22;14.68;;;10.15;;
49193;SDS011;35029;50.804;12.866;2023-02-23T10:02:01;16.50;;;10.90;;
49193;SDS011;35029;50.804;12.866;2023-02-23T10:04:37;11.95;;;10.52;;
49193;SDS011;35029;50.804;12.866;2023-02-23T10:15:47;15.27;;;10.73;;
49193;SDS011;35029;50.804;12.866;2023-02-23T10:19:03;15.80;;;11.77;;
49193;SDS011;35029;50.804;12.866;2023-02-23T10:21:15;14.73;;;11.77;;
49193;SDS011;35029;50.804;12.866;2023-02-23T10:23:51;15.48;;;12.20;;
49193;SDS011;35029;50.804;12.866;2023-02-23T10:26:26;16.25;;;13.13;;
49193;SDS011;35029;50.804;12.866;2023-02-23T10:28:59;15.43;;;13.10;;
49193;SDS011;35029;50.804;12.866;2023-02-23T10:33:50;19.20;;;12.70;;
49193;SDS011;35029;50.804;12.866;2023-02-23T10:36:41;18.92;;;13.95;;
49193;SDS011;35029;50.804;12.866;2023-02-23T10:39:12;18.67;;;15.13;;
49193;SDS011;35029;50.804;12.866;2023-02-23T10:41:38;16.55;;;14.15;;
49193;SDS011;35029;50.804;12.866;2023-02-23T10:44:09;20.48;;;14.35;;
49193;SDS011;35029;50.804;12.866;2023-02-23T10:46:42;15.75;;;13.00;;
49193;SDS011;35029;50.804;12.866;2023-02-23T10:49:13;17.10;;;13.48;;
49193;SDS011;35029;50.804;12.866;2023-02-23T10:51:46;23.73;;;15.82;;
49193;SDS011;35029;50.804;12.866;2023-02-23T10:57:10;19.08;;;13.23;;
49193;SDS011;35029;50.804;12.866;2023-02-23T10:59:57;17.77;;;13.75;;
49193;SDS011;35029;50.804;12.866;2023-02-23T11:02:35;22.55;;;15.07;;
49193;SDS011;35029;50.804;12.866;2023-02-23T11:05:01;17.10;;;13.30;;
49193;SDS011;35029;50.804;12.866;2023-02-23T11:07:31;18.55;;;14.07;;
49193;SDS011;35029;50.804;12.866;2023-02-23T11:09:58;18.90;;;12.52;;
49193;SDS011;35029;50.804;12.866;2023-02-23T11:12:44;16.65;;;13.45;;
49193;SDS011;35029;50.804;12.866;2023-02-23T11:15:29;26.65;;;17.45;;
49193;SDS011;35029;50.804;12.866;2023-02-23T11:18:00;18.08;;;14.18;;
49193;SDS011;35029;50.804;12.866;2023-02-23T11:20:32;22.33;;;15.70;;
49193;SDS011;35029;50.804;12.866;2023-02-23T11:25:54;19.42;;;15.02;;
49193;SDS011;35029;50.804;12.866;2023-02-23T11:30:55;22.40;;;14.57;;
49193;SDS011;35029;50.804;12.866;2023-02-23T11:33:24;18.48;;;13.18;;
49193;SDS011;35029;50.804;12.866;2023-02-23T11:35:56;17.67;;;13.93;;
49193;SDS011;35029;50.804;12.866;2023-02-23T11:38:25;20.02;;;15.48;;
49193;SDS011;35029;50.804;12.866;2023-02-23T11:41:03;17.08;;;14.10;;
49193;SDS011;35029;50.804;12.866;2023-02-23T11:43:31;19.73;;;15.15;;
49193;SDS011;35029;50.804;12.866;2023-02-23T11:45:58;19.20;;;14.48;;
49193;SDS011;35029;50.804;12.866;2023-02-23T11:50:53;17.30;;;13.55;;
49193;SDS011;35029;50.804;12.866;2023-02-23T11:53:25;19.02;;;15.10;;
49193;SDS011;35029;50.804;12.866;2023-02-23T11:56:04;18.65;;;14.75;;
49193;SDS011;35029;50.804;12.866;2023-02-23T12:01:15;20.52;;;15.43;;
49193;SDS011;35029;50.804;12.866;2023-02-23T12:06:26;21.40;;;16.42;;
49193;SDS011;35029;50.804;12.866;2023-02-23T12:08:59;22.45;;;14.63;;
49193;SDS011;35029;50.804;12.866;2023-02-23T12:11:43;28.45;;;19.75;;
49193;SDS011;35029;50.804;12.866;2023-02-23T12:16:49;20.50;;;16.42;;
49193;SDS011;35029;50.804;12.866;2023-02-23T12:19:24;20.67;;;16.23;;
49193;SDS011;35029;50.804;12.866;2023-02-23T12:32:44;24.52;;;17.10;;
49193;SDS011;35029;50.804;12.866;2023-02-23T12:35:57;21.95;;;16.85;;
49193;SDS011;35029;50.804;12.866;2023-02-23T12:38:14;19.77;;;15.60;;
49193;SDS011;35029;50.804;12.866;2023-02-23T12:41:00;22.70;;;17.42;;
49193;SDS011;35029;50.804;12.866;2023-02-23T12:43:34;18.77;;;15.73;;
49193;SDS011;35029;50.804;12.866;2023-02-23T12:46:09;24.02;;;17.75;;
49193;SDS011;35029;50.804;12.866;2023-02-23T12:49:12;21.15;;;17.13;;
49193;SDS011;35029;50.804;12.866;2023-02-23T12:51:39;21.45;;;17.60;;
49193;SDS011;35029;50.804;12.866;2023-02-23T12:54:10;17.77;;;15.77;;
49193;SDS011;35029;50.804;12.866;2023-02-23T12:59:41;27.73;;;19.85;;
49193;SDS011;35029;50.804;12.866;2023-02-23T13:02:12;34.85;;;21.25;;
49193;SDS011;35029;50.804;12.866;2023-02-23T13:04:56;24.33;;;18.35;;
49193;SDS011;35029;50.804;12.866;2023-02-23T13:07:42;22.75;;;18.75;;
49193;SDS011;35029;50.804;12.866;2023-02-23T13:10:31;26.60;;;19.80;;
49193;SDS011;35029;50.804;12.866;2023-02-23T13:21:25;23.38;;;19.05;;
49193;SDS011;35029;50.804;12.866;2023-02-23T13:24:05;21.90;;;17.77;;
49193;SDS011;35029;50.804;12.866;2023-02-23T13:29:23;23.52;;;19.08;;
49193;SDS011;35029;50.804;12.866;2023-02-23T13:31:59;22.95;;;18.05;;
49193;SDS011;35029;50.804;12.866;2023-02-23T13:34:27;22.85;;;18.35;;
49193;SDS011;35029;50.804;12.866;2023-02-23T13:37:19;27.65;;;18.83;;
49193;SDS011;35029;50.804;12.866;2023-02-23T13:42:47;22.45;;;18.67;;
49193;SDS011;35029;50.804;12.866;2023-02-23T13:51:38;25.90;;;17.83;;
49193;SDS011;35029;50.804;12.866;2023-02-23T13:59:43;27.02;;;19.15;;
49193;SDS011;35029;50.804;12.866;2023-02-23T14:04:47;24.10;;;19.88;;
49193;SDS011;35029;50.804;12.866;2023-02-23T14:07:21;28.33;;;18.42;;
49193;SDS011;35029;50.804;12.866;2023-02-23T14:09:52;23.20;;;17.92;;
49193;SDS011;35029;50.804;12.866;2023-02-23T14:12:25;28.92;;;19.13;;
49193;SDS011;35029;50.804;12.866;2023-02-23T14:15:26;24.95;;;18.00;;
49193;SDS011;35029;50.804;12.866;2023-02-23T14:17:58;26.58;;;17.25;;
49193;SDS011;35029;50.804;12.866;2023-02-23T14:46:47;22.98;;;15.43;;
49193;SDS011;35029;50.804;12.866;2023-02-23T14:49:18;26.95;;;18.55;;
49193;SDS011;35029;50.804;12.866;2023-02-23T14:51:50;20.52;;;16.25;;
49193;SDS011;35029;50.804;12.866;2023-02-23T14:56:56;21.85;;;16.23;;
49193;SDS011;35029;50.804;12.866;2023-02-23T14:59:25;19.98;;;16.00;;
49193;SDS011;35029;50.804;12.866;2023-02-23T15:01:53;20.13;;;15.45;;
49193;SDS011;35029;50.804;12.866;2023-02-23T15:04:26;22.08;;;16.50;;
49193;SDS011;35029;50.804;12.866;2023-02-23T15:06:58;17.98;;;14.23;;
49193;SDS011;35029;50.804;12.866;2023-02-23T15:09:38;19.20;;;15.45;;
49193;SDS011;35029;50.804;12.866;2023-02-23T15:12:14;20.60;;;15.43;;
49193;SDS011;35029;50.804;12.866;2023-02-23T15:14:47;24.25;;;17.60;;
49193;SDS011;35029;50.804;12.866;2023-02-23T15:17:21;20.30;;;16.42;;
49193;SDS011;35029;50.804;12.866;2023-02-23T15:19:52;21.73;;;15.90;;
49193;SDS011;35029;50.804;12.866;2023-02-23T15:24:49;24.08;;;16.20;;
49193;SDS011;35029;50.804;12.866;2023-02-23T15:27:22;17.55;;;15.23;;
49193;SDS011;35029;50.804;12.866;2023-02-23T15:29:53;20.02;;;16.40;;
49193;SDS011;35029;50.804;12.866;2023-02-23T15:32:23;20.13;;;16.23;;
49193;SDS011;35029;50.804;12.866;2023-02-23T15:34:50;25.45;;;17.95;;
49193;SDS011;35029;50.804;12.866;2023-02-23T15:39:52;21.52;;;17.23;;
49193;SDS011;35029;50.804;12.866;2023-02-23T15:42:25;22.58;;;17.35;;
49193;SDS011;35029;50.804;12.866;2023-02-23T15:44:58;24.15;;;19.15;;
49193;SDS011;35029;50.804;12.866;2023-02-23T15:47:28;29.23;;;21.13;;
49193;SDS011;35029;50.804;12.866;2023-02-23T15:53:02;29.38;;;20.95;;
49193;SDS011;35029;50.804;12.866;2023-02-23T15:55:38;28.48;;;21.75;;
49193;SDS011;35029;50.804;12.866;2023-02-23T15:58:19;31.20;;;24.08;;
49193;SDS011;35029;50.804;12.866;2023-02-23T16:00:49;32.53;;;24.05;;
49193;SDS011;35029;50.804;12.866;2023-02-23T16:03:21;44.85;;;28.77;;
49193;SDS011;35029;50.804;12.866;2023-02-23T16:05:58;39.90;;;27.60;;
49193;SDS011;35029;50.804;12.866;2023-02-23T16:08:32;37.50;;;26.88;;
49193;SDS011;35029;50.804;12.866;2023-02-23T16:13:30;35.67;;;28.52;;
49193;SDS011;35029;50.804;12.866;2023-02-23T16:15:55;38.10;;;30.25;;
49193;SDS011;35029;50.804;12.866;2023-02-23T16:18:25;36.00;;;28.65;;
49193;SDS011;35029;50.804;12.866;2023-02-23T16:20:58;44.30;;;29.65;;
49193;SDS011;35029;50.804;12.866;2023-02-23T16:23:29;43.70;;;29.27;;
49193;SDS011;35029;50.804;12.866;2023-02-23T16:26:09;38.22;;;29.60;;
49193;SDS011;35029;50.804;12.866;2023-02-23T16:28:41;35.67;;;27.25;;
49193;SDS011;35029;50.804;12.866;2023-02-23T16:31:09;35.63;;;27.45;;
49193;SDS011;35029;50.804;12.866;2023-02-23T16:36:18;33.10;;;26.98;;
49193;SDS011;35029;50.804;12.866;2023-02-23T16:38:54;31.95;;;24.52;;
49193;SDS011;35029;50.804;12.866;2023-02-23T16:41:23;25.30;;;20.10;;
49193;SDS011;35029;50.804;12.866;2023-02-23T16:43:50;28.05;;;19.75;;
49193;SDS011;35029;50.804;12.866;2023-02-23T16:46:19;24.52;;;19.20;;
49193;SDS011;35029;50.804;12.866;2023-02-23T16:48:47;23.55;;;17.83;;
49193;SDS011;35029;50.804;12.866;2023-02-23T16:51:13;22.70;;;18.02;;
49193;SDS011;35029;50.804;12.866;2023-02-23T16:53:41;21.27;;;16.30;;
49193;SDS011;35029;50.804;12.866;2023-02-23T16:56:08;23.98;;;17.50;;
49193;SDS011;35029;50.804;12.866;2023-02-23T16:58:38;19.55;;;16.02;;
49193;SDS011;35029;50.804;12.866;2023-02-23T17:01:08;18.88;;;15.30;;
49193;SDS011;35029;50.804;12.866;2023-02-23T17:03:37;23.17;;;16.38;;
49193;SDS011;35029;50.804;12.866;2023-02-23T17:06:03;17.05;;;13.77;;
49193;SDS011;35029;50.804;12.866;2023-02-23T17:08:29;23.23;;;16.25;;
49193;SDS011;35029;50.804;12.866;2023-02-23T17:10:55;20.35;;;16.42;;
49193;SDS011;35029;50.804;12.866;2023-02-23T17:13:23;20.15;;;15.52;;
49193;SDS011;35029;50.804;12.866;2023-02-23T17:15:51;21.30;;;16.58;;
49193;SDS011;35029;50.804;12.866;2023-02-23T17:18:27;29.15;;;21.33;;
49193;SDS011;35029;50.804;12.866;2023-02-23T17:20:58;21.88;;;16.60;;
49193;SDS011;35029;50.804;12.866;2023-02-23T17:23:26;17.15;;;14.40;;